KCRX

Roscoe Turner Airport

Corinth, Mississippi, USA
METAR KCRX 140715Z AUTO 12005KT 3SM -RA FEW003 BKN011 OVC020 11/09 A2992 RMK AO2
Observed Flight Rules
Dec-14 @ 07:15 UTC (25 minutes ago) Marginal Visual Flight Rules
Wind Visibility Clouds Conditions
120° at 5 knots 3 miles
  • Few at 300' AGL
  • Broken at 1,100' AGL
  • Overcast at 2,000' AGL
  • Light Rain
Temperatures Readings
Current 11°C / 52°F
Dewpoint 9°C / 48°F
Humidity 88%
Altimeter 29.92" Hg
Pressure 1013 hPa
Elevation 130
METAR KCRX 140715Z AUTO 12005KT 3SM -RA FEW003 BKN011 OVC020 11/09 A2992 RMK AO2
Observed Flight Rules
Dec-14 @ 07:15 UTC
(25 minutes ago)
MVFR
Wind Visibility
120° at 5 knots 3 miles
Clouds
  • Few at 300' AGL
  • Broken at 1,100' AGL
  • Overcast at 2,000' AGL
Conditions
  • Light Rain
Temperature Dewpoint
11°C / 52°F 9°C / 48°F
Humidity Altimeter Pressure
88% 29.92" Hg 1013 hPa